sensor_id;sensor_type;location;lat;lon;timestamp;pressure;altitude;pressure_sealevel;temperature;humidity
49104;BME280;34915;52.926;11.116;2023-05-22T00:00:16;101618.31;;;18.32;71.22
49104;BME280;34915;52.926;11.116;2023-05-22T00:02:42;101605.56;;;18.16;73.31
49104;BME280;34915;52.926;11.116;2023-05-22T00:05:12;101614.44;;;18.16;72.63
49104;BME280;34915;52.926;11.116;2023-05-22T00:07:38;101600.34;;;18.14;74.64
49104;BME280;34915;52.926;11.116;2023-05-22T00:10:05;101614.97;;;18.10;72.83
49104;BME280;34915;52.926;11.116;2023-05-22T00:12:30;101613.78;;;18.03;74.48
49104;BME280;34915;52.926;11.116;2023-05-22T00:14:56;101606.41;;;17.96;75.19
49104;BME280;34915;52.926;11.116;2023-05-22T00:17:22;101615.41;;;17.85;74.28
49104;BME280;34915;52.926;11.116;2023-05-22T00:19:49;101611.38;;;17.71;76.49
49104;BME280;34915;52.926;11.116;2023-05-22T00:22:15;101601.44;;;17.62;76.25
49104;BME280;34915;52.926;11.116;2023-05-22T00:24:41;101606.78;;;17.62;76.02
49104;BME280;34915;52.926;11.116;2023-05-22T00:27:06;101603.41;;;17.60;76.51
49104;BME280;34915;52.926;11.116;2023-05-22T00:29:32;101598.84;;;17.51;76.36
49104;BME280;34915;52.926;11.116;2023-05-22T00:31:58;101596.84;;;17.53;77.46
49104;BME280;34915;52.926;11.116;2023-05-22T00:34:23;101592.03;;;17.47;77.38
49104;BME280;34915;52.926;11.116;2023-05-22T00:36:49;101592.28;;;17.44;76.12
49104;BME280;34915;52.926;11.116;2023-05-22T00:39:14;101588.66;;;17.45;77.87
49104;BME280;34915;52.926;11.116;2023-05-22T00:41:40;101587.19;;;17.41;77.50
49104;BME280;34915;52.926;11.116;2023-05-22T00:44:05;101577.66;;;17.48;75.12
49104;BME280;34915;52.926;11.116;2023-05-22T00:46:32;101589.03;;;17.61;74.07
49104;BME280;34915;52.926;11.116;2023-05-22T00:48:57;101589.06;;;17.70;73.69
49104;BME280;34915;52.926;11.116;2023-05-22T00:51:25;101583.31;;;17.75;73.36
49104;BME280;34915;52.926;11.116;2023-05-22T00:53:51;101574.28;;;17.76;71.95
49104;BME280;34915;52.926;11.116;2023-05-22T00:56:19;101573.88;;;17.80;72.33
49104;BME280;34915;52.926;11.116;2023-05-22T00:58:46;101581.25;;;17.87;71.11
49104;BME280;34915;52.926;11.116;2023-05-22T01:01:12;101565.63;;;17.92;71.92
49104;BME280;34915;52.926;11.116;2023-05-22T01:03:39;101571.16;;;18.00;71.15
49104;BME280;34915;52.926;11.116;2023-05-22T01:06:13;101557.88;;;17.99;70.48
49104;BME280;34915;52.926;11.116;2023-05-22T01:08:40;101569.81;;;18.15;69.73
49104;BME280;34915;52.926;11.116;2023-05-22T01:11:20;101579.72;;;18.24;68.49
49104;BME280;34915;52.926;11.116;2023-05-22T01:16:49;101569.03;;;18.43;67.38
49104;BME280;34915;52.926;11.116;2023-05-22T01:30:24;101578.69;;;18.55;65.88
49104;BME280;34915;52.926;11.116;2023-05-22T01:32:55;101569.22;;;18.51;65.53
49104;BME280;34915;52.926;11.116;2023-05-22T01:35:22;101575.88;;;18.56;65.38
49104;BME280;34915;52.926;11.116;2023-05-22T01:37:49;101574.72;;;18.59;66.21
49104;BME280;34915;52.926;11.116;2023-05-22T01:40:16;101573.47;;;18.63;65.05
49104;BME280;34915;52.926;11.116;2023-05-22T01:42:42;101572.50;;;18.64;64.75
49104;BME280;34915;52.926;11.116;2023-05-22T01:45:09;101577.59;;;18.67;64.78
49104;BME280;34915;52.926;11.116;2023-05-22T01:47:35;101555.81;;;18.70;64.18
49104;BME280;34915;52.926;11.116;2023-05-22T01:50:02;101564.16;;;18.67;64.52
49104;BME280;34915;52.926;11.116;2023-05-22T01:55:10;101569.25;;;18.70;63.79
49104;BME280;34915;52.926;11.116;2023-05-22T01:57:44;101567.97;;;18.64;65.04
49104;BME280;34915;52.926;11.116;2023-05-22T02:00:12;101567.13;;;18.64;63.94
49104;BME280;34915;52.926;11.116;2023-05-22T02:02:42;101558.91;;;18.56;64.79
49104;BME280;34915;52.926;11.116;2023-05-22T02:05:10;101544.47;;;18.47;65.57
49104;BME280;34915;52.926;11.116;2023-05-22T02:07:38;101554.69;;;18.53;65.41
49104;BME280;34915;52.926;11.116;2023-05-22T02:10:06;101548.44;;;18.53;64.22
49104;BME280;34915;52.926;11.116;2023-05-22T02:12:33;101557.50;;;18.52;66.15
49104;BME280;34915;52.926;11.116;2023-05-22T02:14:59;101540.69;;;18.40;65.49
49104;BME280;34915;52.926;11.116;2023-05-22T02:17:24;101541.13;;;18.55;64.01
49104;BME280;34915;52.926;11.116;2023-05-22T02:19:50;101539.97;;;18.48;64.46
49104;BME280;34915;52.926;11.116;2023-05-22T02:22:16;101529.53;;;18.45;64.03
49104;BME280;34915;52.926;11.116;2023-05-22T02:24:45;101549.00;;;18.47;64.43
49104;BME280;34915;52.926;11.116;2023-05-22T02:27:11;101544.94;;;18.52;63.51
49104;BME280;34915;52.926;11.116;2023-05-22T02:29:37;101531.06;;;18.47;63.29
49104;BME280;34915;52.926;11.116;2023-05-22T02:32:03;101537.44;;;18.46;64.32
49104;BME280;34915;52.926;11.116;2023-05-22T02:34:29;101539.81;;;18.40;64.04
49104;BME280;34915;52.926;11.116;2023-05-22T02:37:00;101543.06;;;18.53;63.02
49104;BME280;34915;52.926;11.116;2023-05-22T02:39:28;101532.63;;;18.50;63.02
49104;BME280;34915;52.926;11.116;2023-05-22T02:41:54;101538.28;;;18.47;63.23
49104;BME280;34915;52.926;11.116;2023-05-22T02:44:20;101540.53;;;18.42;64.01
49104;BME280;34915;52.926;11.116;2023-05-22T02:46:45;101535.72;;;18.36;64.36
49104;BME280;34915;52.926;11.116;2023-05-22T02:49:12;101525.78;;;18.27;64.09
49104;BME280;34915;52.926;11.116;2023-05-22T02:51:37;101537.97;;;18.31;63.68
49104;BME280;34915;52.926;11.116;2023-05-22T02:54:03;101529.16;;;18.20;64.55
49104;BME280;34915;52.926;11.116;2023-05-22T02:56:28;101535.41;;;18.20;65.91
49104;BME280;34915;52.926;11.116;2023-05-22T02:58:56;101528.84;;;18.13;65.61
49104;BME280;34915;52.926;11.116;2023-05-22T03:01:22;101531.34;;;18.05;66.97
49104;BME280;34915;52.926;11.116;2023-05-22T03:03:47;101527.53;;;17.98;68.90
49104;BME280;34915;52.926;11.116;2023-05-22T03:06:14;101527.34;;;17.90;69.69
49104;BME280;34915;52.926;11.116;2023-05-22T03:08:40;101523.38;;;17.85;66.99
49104;BME280;34915;52.926;11.116;2023-05-22T03:11:08;101517.19;;;17.84;68.28
49104;BME280;34915;52.926;11.116;2023-05-22T03:13:34;101516.00;;;17.77;67.99
49104;BME280;34915;52.926;11.116;2023-05-22T03:16:00;101510.94;;;17.75;68.13
49104;BME280;34915;52.926;11.116;2023-05-22T03:18:26;101512.91;;;17.73;67.16
49104;BME280;34915;52.926;11.116;2023-05-22T03:20:52;101522.47;;;17.66;68.49
49104;BME280;34915;52.926;11.116;2023-05-22T03:23:17;101519.06;;;17.64;69.23
49104;BME280;34915;52.926;11.116;2023-05-22T03:25:45;101525.94;;;17.57;69.16
49104;BME280;34915;52.926;11.116;2023-05-22T03:28:12;101523.81;;;17.51;68.96
49104;BME280;34915;52.926;11.116;2023-05-22T03:30:38;101523.81;;;17.51;69.81
49104;BME280;34915;52.926;11.116;2023-05-22T03:33:04;101525.78;;;17.49;70.13
49104;BME280;34915;52.926;11.116;2023-05-22T03:35:29;101511.91;;;17.44;69.64
49104;BME280;34915;52.926;11.116;2023-05-22T03:37:55;101523.78;;;17.41;71.43
49104;BME280;34915;52.926;11.116;2023-05-22T03:40:20;101520.50;;;17.38;70.46
49104;BME280;34915;52.926;11.116;2023-05-22T03:42:46;101522.59;;;17.34;71.73
49104;BME280;34915;52.926;11.116;2023-05-22T03:45:13;101525.69;;;17.30;70.46
49104;BME280;34915;52.926;11.116;2023-05-22T03:47:39;101524.81;;;17.29;71.70
49104;BME280;34915;52.926;11.116;2023-05-22T03:50:04;101517.91;;;17.27;70.97
49104;BME280;34915;52.926;11.116;2023-05-22T03:52:30;101524.22;;;17.26;73.35
49104;BME280;34915;52.926;11.116;2023-05-22T03:54:56;101517.16;;;17.25;70.30
49104;BME280;34915;52.926;11.116;2023-05-22T03:57:21;101516.19;;;17.26;68.70
49104;BME280;34915;52.926;11.116;2023-05-22T03:59:47;101515.41;;;17.35;68.40
49104;BME280;34915;52.926;11.116;2023-05-22T04:02:12;101515.00;;;17.39;71.02
49104;BME280;34915;52.926;11.116;2023-05-22T04:04:40;101497.53;;;17.45;67.87
49104;BME280;34915;52.926;11.116;2023-05-22T04:07:06;101508.91;;;17.58;68.56
49104;BME280;34915;52.926;11.116;2023-05-22T04:09:34;101516.66;;;17.61;69.80
49104;BME280;34915;52.926;11.116;2023-05-22T04:12:01;101510.31;;;17.62;68.95
49104;BME280;34915;52.926;11.116;2023-05-22T04:14:27;101512.28;;;17.60;69.04
49104;BME280;34915;52.926;11.116;2023-05-22T04:16:53;101508.63;;;17.61;67.69
49104;BME280;34915;52.926;11.116;2023-05-22T04:19:18;101508.63;;;17.61;69.41
49104;BME280;34915;52.926;11.116;2023-05-22T04:21:45;101487.72;;;17.55;68.03
49104;BME280;34915;52.926;11.116;2023-05-22T04:24:12;101506.72;;;17.72;68.29
49104;BME280;34915;52.926;11.116;2023-05-22T04:26:37;101510.94;;;17.75;66.73
49104;BME280;34915;52.926;11.116;2023-05-22T04:29:03;101504.72;;;17.74;69.67
49104;BME280;34915;52.926;11.116;2023-05-22T04:31:30;101505.56;;;17.75;66.27
49104;BME280;34915;52.926;11.116;2023-05-22T04:33:56;101499.78;;;17.79;65.51
49104;BME280;34915;52.926;11.116;2023-05-22T04:36:24;101510.09;;;17.83;66.81
49104;BME280;34915;52.926;11.116;2023-05-22T04:38:53;101508.84;;;17.78;68.18
49104;BME280;34915;52.926;11.116;2023-05-22T04:41:19;101507.88;;;17.88;65.32
49104;BME280;34915;52.926;11.116;2023-05-22T04:43:47;101516.09;;;17.96;65.32
49104;BME280;34915;52.926;11.116;2023-05-22T04:46:16;101505.25;;;18.07;64.11
49104;BME280;34915;52.926;11.116;2023-05-22T04:48:41;101512.19;;;18.10;66.26
49104;BME280;34915;52.926;11.116;2023-05-22T04:51:07;101511.06;;;18.12;64.58
49104;BME280;34915;52.926;11.116;2023-05-22T04:53:34;101513.31;;;18.07;66.83
49104;BME280;34915;52.926;11.116;2023-05-22T04:56:00;101520.63;;;18.05;65.48
49104;BME280;34915;52.926;11.116;2023-05-22T04:58:25;101522.34;;;18.06;66.49
49104;BME280;34915;52.926;11.116;2023-05-22T05:00:54;101511.59;;;18.06;68.59
49104;BME280;34915;52.926;11.116;2023-05-22T05:03:22;101511.59;;;18.06;66.77
49104;BME280;34915;52.926;11.116;2023-05-22T05:05:50;101518.09;;;18.04;68.76
49104;BME280;34915;52.926;11.116;2023-05-22T05:08:16;101511.34;;;18.09;64.85
49104;BME280;34915;52.926;11.116;2023-05-22T05:10:42;101514.50;;;18.14;67.20
49104;BME280;34915;52.926;11.116;2023-05-22T05:13:07;101510.81;;;18.15;65.64
49104;BME280;34915;52.926;11.116;2023-05-22T05:15:33;101515.34;;;18.24;65.58
49104;BME280;34915;52.926;11.116;2023-05-22T05:17:58;101509.69;;;18.27;67.21
49104;BME280;34915;52.926;11.116;2023-05-22T05:20:24;101517.06;;;18.25;66.99
49104;BME280;34915;52.926;11.116;2023-05-22T05:22:49;101508.31;;;18.23;66.31
49104;BME280;34915;52.926;11.116;2023-05-22T05:25:15;101518.75;;;18.26;68.06
49104;BME280;34915;52.926;11.116;2023-05-22T05:27:41;101517.06;;;18.25;66.72
49104;BME280;34915;52.926;11.116;2023-05-22T05:30:07;101516.50;;;18.31;67.03
49104;BME280;34915;52.926;11.116;2023-05-22T05:32:33;101510.56;;;18.37;64.01
49104;BME280;34915;52.926;11.116;2023-05-22T05:34:58;101525.56;;;18.39;65.80
49104;BME280;34915;52.926;11.116;2023-05-22T05:37:24;101521.03;;;18.40;65.33
49104;BME280;34915;52.926;11.116;2023-05-22T05:39:50;101519.06;;;18.42;65.92
49104;BME280;34915;52.926;11.116;2023-05-22T05:42:15;101515.66;;;18.40;67.27
49104;BME280;34915;52.926;11.116;2023-05-22T05:44:42;101506.63;;;18.41;65.31
49104;BME280;34915;52.926;11.116;2023-05-22T05:47:07;101519.06;;;18.42;64.80
49104;BME280;34915;52.926;11.116;2023-05-22T05:49:33;101517.34;;;18.41;66.72
49104;BME280;34915;52.926;11.116;2023-05-22T05:51:58;101512.00;;;18.41;63.38
49104;BME280;34915;52.926;11.116;2023-05-22T05:54:24;101508.63;;;18.39;66.42
49104;BME280;34915;52.926;11.116;2023-05-22T05:56:52;101518.75;;;18.35;66.65
49104;BME280;34915;52.926;11.116;2023-05-22T05:59:18;101524.72;;;18.39;64.49
49104;BME280;34915;52.926;11.116;2023-05-22T06:01:45;101524.44;;;18.42;63.76
49104;BME280;34915;52.926;11.116;2023-05-22T06:04:14;101518.50;;;18.48;62.59
49104;BME280;34915;52.926;11.116;2023-05-22T06:06:39;101514.56;;;18.52;66.74
49104;BME280;34915;52.926;11.116;2023-05-22T06:09:07;101509.72;;;18.46;67.23
49104;BME280;34915;52.926;11.116;2023-05-22T06:11:34;101517.09;;;18.53;65.85
49104;BME280;34915;52.926;11.116;2023-05-22T06:14:01;101519.38;;;18.58;65.16
49104;BME280;34915;52.926;11.116;2023-05-22T06:16:27;101519.50;;;18.66;64.76
49104;BME280;34915;52.926;11.116;2023-05-22T06:18:53;101500.72;;;18.66;64.33
49104;BME280;34915;52.926;11.116;2023-05-22T06:21:21;101514.81;;;18.68;66.35
49104;BME280;34915;52.926;11.116;2023-05-22T06:23:47;101512.88;;;18.70;67.05
49104;BME280;34915;52.926;11.116;2023-05-22T06:26:14;101512.59;;;18.73;64.65
49104;BME280;34915;52.926;11.116;2023-05-22T06:28:43;101513.13;;;18.76;65.51
49104;BME280;34915;52.926;11.116;2023-05-22T06:31:09;101515.41;;;18.80;65.46
49104;BME280;34915;52.926;11.116;2023-05-22T06:33:35;101510.88;;;18.90;64.55
49104;BME280;34915;52.926;11.116;2023-05-22T06:36:02;101516.84;;;19.03;65.21
49104;BME280;34915;52.926;11.116;2023-05-22T06:38:28;101511.13;;;19.25;63.89
49104;BME280;34915;52.926;11.116;2023-05-22T06:40:53;101500.34;;;19.44;62.95
49104;BME280;34915;52.926;11.116;2023-05-22T06:43:19;101505.66;;;19.63;61.76
49104;BME280;34915;52.926;11.116;2023-05-22T06:45:45;101509.53;;;19.77;62.84
49104;BME280;34915;52.926;11.116;2023-05-22T06:48:10;101497.50;;;19.81;65.50
49104;BME280;34915;52.926;11.116;2023-05-22T06:50:36;101509.78;;;19.93;62.63
49104;BME280;34915;52.926;11.116;2023-05-22T06:53:02;101510.03;;;20.00;64.79
49104;BME280;34915;52.926;11.116;2023-05-22T06:55:27;101510.59;;;20.03;62.56
49104;BME280;34915;52.926;11.116;2023-05-22T06:57:53;101511.41;;;20.13;65.03
49104;BME280;34915;52.926;11.116;2023-05-22T07:00:18;101516.84;;;20.21;62.97
49104;BME280;34915;52.926;11.116;2023-05-22T07:02:44;101513.25;;;20.30;62.02
49104;BME280;34915;52.926;11.116;2023-05-22T07:05:10;101514.03;;;20.40;60.88
49104;BME280;34915;52.926;11.116;2023-05-22T07:07:36;101521.00;;;20.60;60.79
49104;BME280;34915;52.926;11.116;2023-05-22T07:10:01;101518.09;;;20.71;62.13
49104;BME280;34915;52.926;11.116;2023-05-22T07:12:29;101522.31;;;20.90;60.03
49104;BME280;34915;52.926;11.116;2023-05-22T07:14:55;101518.38;;;21.02;57.82
49104;BME280;34915;52.926;11.116;2023-05-22T07:17:22;101517.38;;;21.03;59.13
49104;BME280;34915;52.926;11.116;2023-05-22T07:19:47;101506.94;;;21.00;58.16
49104;BME280;34915;52.926;11.116;2023-05-22T07:22:13;101512.31;;;21.00;59.13
49104;BME280;34915;52.926;11.116;2023-05-22T07:24:39;101520.41;;;21.00;59.13
49104;BME280;34915;52.926;11.116;2023-05-22T07:27:05;101504.78;;;21.12;58.75
49104;BME280;34915;52.926;11.116;2023-05-22T07:29:30;101519.09;;;21.47;56.80
49104;BME280;34915;52.926;11.116;2023-05-22T07:31:56;101511.69;;;21.49;57.01
49104;BME280;34915;52.926;11.116;2023-05-22T07:34:22;101501.72;;;21.49;57.31
49104;BME280;34915;52.926;11.116;2023-05-22T07:36:48;101507.84;;;21.59;58.64
49104;BME280;34915;52.926;11.116;2023-05-22T07:39:13;101503.38;;;21.76;59.02
49104;BME280;34915;52.926;11.116;2023-05-22T07:41:39;101489.97;;;21.91;59.62
49104;BME280;34915;52.926;11.116;2023-05-22T07:44:05;101503.53;;;22.07;58.78
49104;BME280;34915;52.926;11.116;2023-05-22T07:46:31;101499.84;;;22.16;57.94
49104;BME280;34915;52.926;11.116;2023-05-22T07:48:59;101499.25;;;22.30;58.03
49104;BME280;34915;52.926;11.116;2023-05-22T07:51:27;101492.88;;;22.39;56.25
49104;BME280;34915;52.926;11.116;2023-05-22T07:53:53;101488.88;;;22.59;54.55
49104;BME280;34915;52.926;11.116;2023-05-22T07:56:18;101489.19;;;22.56;56.29
49104;BME280;34915;52.926;11.116;2023-05-22T07:58:44;101493.59;;;22.65;55.84
49104;BME280;34915;52.926;11.116;2023-05-22T08:01:12;101491.91;;;22.64;58.71
49104;BME280;34915;52.926;11.116;2023-05-22T08:03:39;101485.81;;;22.70;56.42
49104;BME280;34915;52.926;11.116;2023-05-22T08:06:05;101483.13;;;22.85;57.32
49104;BME280;34915;52.926;11.116;2023-05-22T08:08:31;101486.53;;;22.95;55.31
49104;BME280;34915;52.926;11.116;2023-05-22T08:10:58;101480.13;;;23.04;57.51
49104;BME280;34915;52.926;11.116;2023-05-22T08:13:23;101487.72;;;23.09;54.68
49104;BME280;34915;52.926;11.116;2023-05-22T08:15:49;101484.84;;;23.10;53.04
49104;BME280;34915;52.926;11.116;2023-05-22T08:18:14;101481.81;;;23.21;53.75
49104;BME280;34915;52.926;11.116;2023-05-22T08:20:40;101471.31;;;23.18;54.60
49104;BME280;34915;52.926;11.116;2023-05-22T08:23:09;101487.19;;;23.37;54.07
49104;BME280;34915;52.926;11.116;2023-05-22T08:25:34;101464.16;;;23.41;54.17
49104;BME280;34915;52.926;11.116;2023-05-22T08:28:00;101467.50;;;23.59;55.26
49104;BME280;34915;52.926;11.116;2023-05-22T08:30:26;101463.72;;;23.83;52.96
49104;BME280;34915;52.926;11.116;2023-05-22T08:32:51;101466.38;;;23.91;53.71
49104;BME280;34915;52.926;11.116;2023-05-22T08:35:17;101473.72;;;24.13;52.21
49104;BME280;34915;52.926;11.116;2023-05-22T08:37:43;101467.91;;;24.24;52.21
49104;BME280;34915;52.926;11.116;2023-05-22T08:40:11;101454.00;;;24.35;51.17
49104;BME280;34915;52.926;11.116;2023-05-22T08:42:37;101462.78;;;24.37;50.55
49104;BME280;34915;52.926;11.116;2023-05-22T08:45:03;101458.03;;;24.31;50.28
49104;BME280;34915;52.926;11.116;2023-05-22T08:47:30;101445.50;;;24.38;49.40
49104;BME280;34915;52.926;11.116;2023-05-22T08:49:59;101450.53;;;24.49;49.96
49104;BME280;34915;52.926;11.116;2023-05-22T08:52:49;101450.25;;;24.58;51.35
49104;BME280;34915;52.926;11.116;2023-05-22T08:55:13;101442.31;;;24.57;51.04
49104;BME280;34915;52.926;11.116;2023-05-22T08:57:39;101454.25;;;24.92;51.15
49104;BME280;34915;52.926;11.116;2023-05-22T09:00:06;101457.59;;;24.94;50.23
49104;BME280;34915;52.926;11.116;2023-05-22T09:02:32;101434.00;;;25.03;50.07
49104;BME280;34915;52.926;11.116;2023-05-22T09:04:58;101439.50;;;25.09;49.60
49104;BME280;34915;52.926;11.116;2023-05-22T09:07:26;101442.16;;;25.17;51.12
49104;BME280;34915;52.926;11.116;2023-05-22T09:09:55;101444.31;;;24.99;49.02
49104;BME280;34915;52.926;11.116;2023-05-22T09:12:20;101432.53;;;24.92;51.79
49104;BME280;34915;52.926;11.116;2023-05-22T09:14:46;101434.19;;;24.93;48.67
49104;BME280;34915;52.926;11.116;2023-05-22T09:17:14;101431.47;;;25.01;49.23
49104;BME280;34915;52.926;11.116;2023-05-22T09:19:43;101431.31;;;25.17;47.71
49104;BME280;34915;52.926;11.116;2023-05-22T09:22:10;101436.72;;;25.17;48.44
49104;BME280;34915;52.926;11.116;2023-05-22T09:24:44;101438.41;;;25.18;48.26
49104;BME280;34915;52.926;11.116;2023-05-22T09:27:10;101425.88;;;25.17;48.30
49104;BME280;34915;52.926;11.116;2023-05-22T09:29:52;101421.38;;;25.24;48.90
49104;BME280;34915;52.926;11.116;2023-05-22T09:32:18;101416.13;;;25.23;48.21
49104;BME280;34915;52.926;11.116;2023-05-22T09:34:45;101423.66;;;25.35;49.03
49104;BME280;34915;52.926;11.116;2023-05-22T09:37:12;101419.34;;;25.26;49.12
49104;BME280;34915;52.926;11.116;2023-05-22T09:39:39;101413.91;;;25.26;50.07
49104;BME280;34915;52.926;11.116;2023-05-22T09:42:09;101403.81;;;25.20;49.98
49104;BME280;34915;52.926;11.116;2023-05-22T09:44:36;101415.50;;;25.35;49.29
49104;BME280;34915;52.926;11.116;2023-05-22T09:47:02;101408.69;;;25.39;49.18
49104;BME280;34915;52.926;11.116;2023-05-22T09:49:30;101407.19;;;25.51;48.34
49104;BME280;34915;52.926;11.116;2023-05-22T09:51:56;101402.31;;;25.61;48.92
49104;BME280;34915;52.926;11.116;2023-05-22T09:54:24;101403.72;;;25.71;47.25
49104;BME280;34915;52.926;11.116;2023-05-22T09:56:55;101417.28;;;25.85;45.37
49104;BME280;34915;52.926;11.116;2023-05-22T09:59:26;101406.88;;;25.89;46.22
49104;BME280;34915;52.926;11.116;2023-05-22T10:01:54;101402.56;;;25.94;47.00
49104;BME280;34915;52.926;11.116;2023-05-22T10:04:21;101399.72;;;26.02;47.57
49104;BME280;34915;52.926;11.116;2023-05-22T10:06:51;101392.88;;;26.06;45.65
49104;BME280;34915;52.926;11.116;2023-05-22T10:09:23;101392.88;;;26.06;45.96
49104;BME280;34915;52.926;11.116;2023-05-22T10:11:54;101385.31;;;26.02;45.88
49104;BME280;34915;52.926;11.116;2023-05-22T10:14:24;101382.94;;;26.13;47.87
49104;BME280;34915;52.926;11.116;2023-05-22T10:16:51;101384.59;;;26.14;45.01
49104;BME280;34915;52.926;11.116;2023-05-22T10:19:17;101383.47;;;26.23;44.89
49104;BME280;34915;52.926;11.116;2023-05-22T10:21:44;101386.34;;;26.22;44.30
49104;BME280;34915;52.926;11.116;2023-05-22T10:24:12;101382.16;;;26.19;46.32
49104;BME280;34915;52.926;11.116;2023-05-22T10:26:38;101367.28;;;26.36;45.17
49104;BME280;34915;52.926;11.116;2023-05-22T10:29:08;101371.59;;;26.45;45.49
49104;BME280;34915;52.926;11.116;2023-05-22T10:34:21;101361.81;;;26.15;45.27
49104;BME280;34915;52.926;11.116;2023-05-22T10:40:00;101356.94;;;26.46;45.52
49104;BME280;34915;52.926;11.116;2023-05-22T10:42:30;101357.16;;;26.72;44.30
49104;BME280;34915;52.926;11.116;2023-05-22T10:44:56;101351.34;;;26.75;43.18
49104;BME280;34915;52.926;11.116;2023-05-22T10:47:21;101355.75;;;26.76;44.71
49104;BME280;34915;52.926;11.116;2023-05-22T10:49:47;101352.22;;;26.81;46.00
49104;BME280;34915;52.926;11.116;2023-05-22T10:52:15;101346.00;;;26.87;44.27
49104;BME280;34915;52.926;11.116;2023-05-22T10:54:44;101345.94;;;26.81;43.36
49104;BME280;34915;52.926;11.116;2023-05-22T10:57:15;101329.19;;;26.78;43.18
49104;BME280;34915;52.926;11.116;2023-05-22T10:59:41;101332.41;;;26.87;44.12
49104;BME280;34915;52.926;11.116;2023-05-22T11:02:19;101341.88;;;26.91;43.90
49104;BME280;34915;52.926;11.116;2023-05-22T11:04:45;101327.16;;;26.86;44.19
49104;BME280;34915;52.926;11.116;2023-05-22T11:07:10;101332.66;;;26.92;46.25
49104;BME280;34915;52.926;11.116;2023-05-22T11:09:42;101322.66;;;26.99;44.03
49104;BME280;34915;52.926;11.116;2023-05-22T11:17:30;101324.75;;;26.97;41.61
49104;BME280;34915;52.926;11.116;2023-05-22T11:22:45;101332.66;;;26.92;43.40
49104;BME280;34915;52.926;11.116;2023-05-22T11:25:15;101327.97;;;26.86;41.71
49104;BME280;34915;52.926;11.116;2023-05-22T11:27:42;101330.06;;;26.84;41.73
49104;BME280;34915;52.926;11.116;2023-05-22T11:30:09;101333.03;;;26.89;41.41
49104;BME280;34915;52.926;11.116;2023-05-22T11:32:37;101325.56;;;26.91;44.11
49104;BME280;34915;52.926;11.116;2023-05-22T11:35:03;101313.09;;;26.82;41.67
49104;BME280;34915;52.926;11.116;2023-05-22T11:37:37;101309.56;;;26.88;42.90
49104;BME280;34915;52.926;11.116;2023-05-22T11:40:03;101313.22;;;26.95;42.69
49104;BME280;34915;52.926;11.116;2023-05-22T11:42:30;101309.06;;;26.99;42.45
49104;BME280;34915;52.926;11.116;2023-05-22T11:44:56;101288.50;;;26.90;41.65
49104;BME280;34915;52.926;11.116;2023-05-22T11:47:23;101300.38;;;26.89;41.37
49104;BME280;34915;52.926;11.116;2023-05-22T11:49:50;101303.00;;;26.97;42.38
49104;BME280;34915;52.926;11.116;2023-05-22T11:52:16;101295.47;;;26.99;42.82
49104;BME280;34915;52.926;11.116;2023-05-22T11:54:44;101303.38;;;26.94;43.52
49104;BME280;34915;52.926;11.116;2023-05-22T11:57:11;101307.03;;;26.80;46.37
49104;BME280;34915;52.926;11.116;2023-05-22T11:59:37;101298.63;;;26.76;44.81
49104;BME280;34915;52.926;11.116;2023-05-22T12:02:03;101296.13;;;26.80;43.99
49104;BME280;34915;52.926;11.116;2023-05-22T12:04:29;101287.91;;;26.95;43.10
49104;BME280;34915;52.926;11.116;2023-05-22T12:06:54;101283.69;;;26.92;45.45
49104;BME280;34915;52.926;11.116;2023-05-22T12:09:20;101285.78;;;26.90;45.31
49104;BME280;34915;52.926;11.116;2023-05-22T12:11:46;101275.78;;;26.97;44.90
49104;BME280;34915;52.926;11.116;2023-05-22T12:14:13;101265.59;;;26.79;45.50
49104;BME280;34915;52.926;11.116;2023-05-22T12:16:39;101271.81;;;26.73;46.75
49104;BME280;34915;52.926;11.116;2023-05-22T12:19:09;101275.19;;;26.75;47.60
49104;BME280;34915;52.926;11.116;2023-05-22T12:21:37;101270.22;;;26.84;47.96
49104;BME280;34915;52.926;11.116;2023-05-22T12:24:04;101271.47;;;26.88;47.22
49104;BME280;34915;52.926;11.116;2023-05-22T12:26:31;101268.13;;;26.86;46.36
49104;BME280;34915;52.926;11.116;2023-05-22T12:28:57;101270.63;;;26.81;47.23
49104;BME280;34915;52.926;11.116;2023-05-22T12:31:23;101264.00;;;26.90;45.93
49104;BME280;34915;52.926;11.116;2023-05-22T12:33:54;101260.59;;;26.88;47.67
49104;BME280;34915;52.926;11.116;2023-05-22T12:36:20;101272.88;;;27.05;45.58
49104;BME280;34915;52.926;11.116;2023-05-22T12:38:46;101267.44;;;27.05;45.98
49104;BME280;34915;52.926;11.116;2023-05-22T12:41:12;101261.38;;;27.10;47.82
49104;BME280;34915;52.926;11.116;2023-05-22T12:43:37;101248.63;;;27.10;47.51
49104;BME280;34915;52.926;11.116;2023-05-22T12:46:03;101265.41;;;27.20;46.66
49104;BME280;34915;52.926;11.116;2023-05-22T12:48:28;101254.13;;;27.23;46.35
49104;BME280;34915;52.926;11.116;2023-05-22T12:50:54;101263.75;;;27.19;44.19
49104;BME280;34915;52.926;11.116;2023-05-22T12:53:20;101251.81;;;27.20;46.51
49104;BME280;34915;52.926;11.116;2023-05-22T12:55:45;101260.00;;;27.27;46.41
49104;BME280;34915;52.926;11.116;2023-05-22T12:58:11;101250.78;;;27.21;46.71
49104;BME280;34915;52.926;11.116;2023-05-22T13:00:37;101242.78;;;27.13;46.22
49104;BME280;34915;52.926;11.116;2023-05-22T13:03:04;101245.75;;;27.18;46.81
49104;BME280;34915;52.926;11.116;2023-05-22T13:05:30;101241.97;;;27.19;46.59
49104;BME280;34915;52.926;11.116;2023-05-22T13:07:55;101232.78;;;27.27;45.69